.
WxDataArchive / Data Records for 2007-11-27
2007-11-26 November 2007 2007-11-28

Data Records for Tuesday, 27 November 2007

Time	Temp	Chill	HIndex	Humid	Dewpt	 Wind 	HiWind	WindDir	Rain 	Barom 
-----	----	-----	------	-----	-----	------	------	-------	-----	----- 
00:00	37.2	37.2	37.2	95	35.9	1	5	248	0.00	30.002 
00:05	37.3	37.3	37.3	95	36.0	1	4	248	0.00	30.006 
00:10	37.3	37.3	37.3	95	36.0	2	6	248	0.00	30.006 
00:15	37.3	37.3	37.3	95	36.0	1	4	248	0.00	30.007 
00:20	37.3	37.3	37.3	95	36.0	1	3	248	0.00	30.015 
00:25	37.5	37.5	37.5	94	35.9	2	4	248	0.00	30.014 
00:30	37.5	37.5	37.5	94	35.9	1	2	248	0.00	30.019 
00:35	37.5	37.5	37.5	94	35.9	2	3	248	0.00	30.019 
00:40	37.5	37.5	37.5	94	35.9	2	4	248	0.00	30.020 
00:45	37.5	37.5	37.5	93	35.7	2	4	270	0.00	30.023 
00:50	37.6	37.6	37.6	93	35.8	1	3	270	0.00	30.025 
00:55	37.6	37.6	37.6	93	35.8	2	4	248	0.00	30.026 
01:00	37.5	37.5	37.5	92	35.4	2	4	292	0.00	30.031 
01:05	37.5	37.5	37.5	92	35.4	2	3	248	0.00	30.032 
01:10	37.5	37.5	37.5	92	35.4	2	4	248	0.00	30.032 
01:15	37.5	37.5	37.5	91	35.1	1	3	248	0.00	30.034 
01:20	37.5	37.5	37.5	91	35.1	2	5	248	0.00	30.035 
01:25	37.5	37.5	37.5	90	34.8	1	4	248	0.00	30.036 
01:30	37.5	37.5	37.5	90	34.8	1	4	270	0.00	30.036 
01:35	37.3	37.3	37.3	90	34.6	1	3	270	0.00	30.038 
01:40	37.3	37.3	37.3	90	34.6	1	2	270	0.00	30.042 
01:45	37.3	37.3	37.3	90	34.6	1	5	270	0.00	30.043 
01:50	37.2	37.2	37.2	89	34.3	1	4	270	0.00	30.044 
01:55	37.2	37.2	37.2	89	34.3	1	4	270	0.00	30.048 
02:00	37.2	37.2	37.2	89	34.3	2	4	270	0.00	30.052 
02:05	37.0	37.0	37.0	89	34.1	1	3	248	0.00	30.051 
02:10	37.0	37.0	37.0	89	34.1	2	5	270	0.00	30.053 
02:15	37.0	37.0	37.0	89	34.1	1	3	270	0.00	30.053 
02:20	37.0	37.0	37.0	89	34.1	1	5	270	0.00	30.057 
02:25	37.0	37.0	37.0	89	34.1	1	3	270	0.00	30.060 
02:30	37.0	37.0	37.0	89	34.1	1	4	270	0.00	30.064 
02:35	37.0	37.0	37.0	89	34.1	1	3	248	0.00	30.066 
02:40	36.9	36.9	36.9	89	34.0	1	2	248	0.00	30.066 
02:45	36.9	36.9	36.9	89	34.0	1	3	248	0.00	30.067 
02:50	36.9	36.9	36.9	89	34.0	1	4	270	0.00	30.067 
02:55	36.8	36.8	36.8	89	33.9	1	4	248	0.00	30.068 
03:00	36.8	36.8	36.8	89	33.9	1	6	248	0.00	30.069 
03:05	36.6	36.6	36.6	89	33.7	1	3	248	0.00	30.074 
03:10	36.6	36.6	36.6	89	33.7	2	4	248	0.00	30.082 
03:15	36.5	36.5	36.5	89	33.6	1	4	248	0.00	30.084 
03:20	36.3	36.3	36.3	89	33.4	1	4	248	0.00	30.085 
03:25	36.2	36.2	36.2	89	33.3	1	5	248	0.00	30.087 
03:30	36.2	36.2	36.2	89	33.3	2	5	248	0.00	30.090 
03:35	35.9	35.9	35.9	89	33.0	1	4	248	0.00	30.094 
03:40	35.9	35.9	35.9	89	33.0	2	6	248	0.00	30.097 
03:45	35.8	35.8	35.8	89	32.9	2	6	248	0.00	30.098 
03:50	35.6	35.6	35.6	89	32.7	2	5	248	0.00	30.098 
03:55	35.5	35.5	35.5	89	32.6	2	6	248	0.00	30.098 
04:00	35.3	35.3	35.3	89	32.4	1	6	248	0.00	30.100 
04:05	35.2	35.2	35.2	89	32.3	2	6	248	0.00	30.102 
04:10	35.0	35.0	35.0	89	32.1	2	7	248	0.00	30.102 
04:15	34.9	34.9	34.9	90	32.3	1	4	225	0.00	30.103 
04:20	34.7	34.7	34.7	90	32.1	2	5	248	0.00	30.102 
04:25	34.6	34.6	34.6	90	32.0	2	5	248	0.00	30.103 
04:30	34.4	34.4	34.4	90	31.8	2	6	248	0.00	30.105 
04:35	34.3	34.3	34.3	90	31.7	2	9	248	0.00	30.104 
04:40	34.3	34.3	34.3	90	31.7	2	6	248	0.00	30.106 
04:45	34.1	34.1	34.1	90	31.5	2	5	248	0.00	30.107 
04:50	33.8	33.8	33.8	90	31.2	2	6	248	0.00	30.114 
04:55	33.8	33.8	33.8	90	31.2	3	6	248	0.00	30.117 
05:00	33.7	33.7	33.7	90	31.1	2	6	270	0.00	30.118 
05:05	33.5	33.5	33.5	90	30.9	2	6	248	0.00	30.121 
05:10	33.4	33.4	33.4	90	30.8	2	4	248	0.00	30.123 
05:15	33.2	33.2	33.2	90	30.6	1	5	248	0.00	30.126 
05:20	33.1	33.1	33.1	90	30.5	2	5	248	0.00	30.130 
05:25	32.9	32.9	32.9	90	30.3	2	6	248	0.00	30.130 
05:30	32.7	32.7	32.7	90	30.1	1	4	248	0.00	30.128 
05:35	32.5	32.5	32.5	90	29.9	1	3	248	0.00	30.127 
05:40	32.4	32.4	32.4	90	29.8	0	3	248	0.00	30.132 
05:45	32.2	32.2	32.2	90	29.6	2	5	248	0.00	30.132 
05:50	32.1	32.1	32.1	90	29.5	2	5	248	0.00	30.133 
05:55	32.1	32.1	32.1	90	29.5	2	6	248	0.00	30.133 
06:00	31.9	31.9	31.9	90	29.3	2	5	248	0.00	30.134 
06:05	31.8	31.8	31.8	90	29.2	2	6	248	0.00	30.135 
06:10	31.6	31.6	31.6	90	29.0	2	6	248	0.00	30.132 
06:15	31.5	31.5	31.5	90	28.9	2	6	248	0.00	30.131 
06:20	31.3	31.3	31.3	90	28.7	2	5	248	0.00	30.130 
06:25	31.2	31.2	31.2	90	28.6	2	4	248	0.00	30.131 
06:30	31.0	31.0	31.0	90	28.4	2	5	248	0.00	30.131 
06:35	31.0	31.0	31.0	90	28.4	3	7	248	0.00	30.137 
06:40	30.9	30.9	30.9	89	28.0	2	4	248	0.00	30.138 
06:45	30.9	30.9	30.9	89	28.0	3	7	248	0.00	30.138 
06:50	30.7	30.7	30.7	89	27.8	3	9	248	0.00	30.139 
06:55	30.7	30.7	30.7	89	27.8	3	9	248	0.00	30.139 
07:00	30.6	30.6	30.6	88	27.5	2	7	248	0.00	30.141 
07:05	30.6	30.6	30.6	88	27.5	2	6	248	0.00	30.142 
07:10	30.6	30.6	30.6	88	27.5	3	7	248	0.00	30.145 
07:15	30.4	30.4	30.4	88	27.3	2	6	248	0.00	30.148 
07:20	30.4	30.4	30.4	88	27.3	2	4	248	0.00	30.152 
07:25	30.3	30.3	30.3	88	27.2	2	5	270	0.00	30.153 
07:30	30.3	30.3	30.3	88	27.2	3	9	248	0.00	30.154 
07:35	30.3	30.3	30.3	88	27.2	3	5	248	0.00	30.153 
07:40	30.3	30.3	30.3	88	27.2	3	11	248	0.00	30.154 
07:45	30.3	30.3	30.3	87	26.9	2	6	248	0.00	30.153 
07:50	30.1	30.1	30.1	87	26.7	3	7	248	0.00	30.152 
07:55	30.1	30.1	30.1	87	26.7	2	6	270	0.00	30.153 
08:00	30.1	30.1	30.1	87	26.7	2	5	248	0.00	30.152 
08:05	30.1	30.1	30.1	87	26.7	2	7	248	0.00	30.153 
08:10	30.1	30.1	30.1	87	26.7	1	4	248	0.00	30.152 
08:15	30.3	30.3	30.3	87	26.9	2	10	248	0.00	30.154 
08:20	30.4	30.4	30.4	87	27.0	2	9	248	0.00	30.154 
08:25	30.4	30.4	30.4	87	27.0	1	4	248	0.00	30.154 
08:30	30.4	30.4	30.4	87	27.0	3	9	248	0.00	30.153 
08:35	30.6	30.6	30.6	86	26.9	3	10	270	0.00	30.153 
08:40	30.7	30.7	30.7	86	27.0	3	10	248	0.00	30.153 
08:45	30.9	30.9	30.9	85	26.9	3	10	248	0.00	30.152 
08:50	31.0	31.0	31.0	85	27.0	2	6	248	0.00	30.141 
08:55	31.2	31.2	31.2	85	27.2	2	9	248	0.00	30.137 
09:00	31.3	31.3	31.3	84	27.0	3	9	248	0.00	30.140 
09:05	31.5	27.5	31.5	84	27.2	4	10	248	0.00	30.151 
09:10	31.6	31.6	31.6	83	27.0	3	9	248	0.00	30.149 
09:15	31.9	28.0	31.9	82	27.0	4	12	270	0.00	30.150 
09:20	32.4	28.5	32.4	81	27.2	4	10	270	0.00	30.151 
09:25	32.7	32.7	32.7	81	27.5	3	7	270	0.00	30.149 
09:30	32.9	32.9	32.9	80	27.4	3	10	248	0.00	30.142 
09:35	33.1	29.3	33.1	79	27.3	4	14	270	0.00	30.133 
09:40	32.9	32.9	32.9	79	27.1	3	10	248	0.00	30.137 
09:45	32.8	29.0	32.8	79	27.0	4	10	248	0.00	30.136 
09:50	33.1	33.1	33.1	79	27.3	3	6	225	0.00	30.136 
09:55	33.4	29.7	33.4	78	27.3	4	13	248	0.00	30.138 
10:00	33.7	30.0	33.7	77	27.3	4	15	248	0.00	30.141 
10:05	34.0	30.4	34.0	76	27.2	4	11	248	0.00	30.139 
10:10	34.3	29.8	34.3	76	27.5	5	11	248	0.00	30.141 
10:15	34.6	31.1	34.6	75	27.5	4	13	248	0.00	30.150 
10:20	34.7	31.2	34.7	75	27.6	4	9	248	0.00	30.152 
10:25	35.0	30.6	35.0	73	27.2	5	10	248	0.00	30.153 
10:30	35.6	32.2	35.6	74	28.1	4	11	248	0.00	30.158 
10:35	35.9	31.7	35.9	71	27.4	5	13	270	0.00	30.156 
10:40	36.0	31.8	36.0	71	27.5	5	12	248	0.00	30.160 
10:45	36.5	32.4	36.5	70	27.7	5	11	248	0.00	30.159 
10:50	36.8	32.7	36.8	69	27.6	5	9	270	0.00	30.153 
10:55	37.2	34.1	37.2	68	27.6	4	10	270	0.00	30.158 
11:00	37.5	31.5	37.5	66	27.2	8	23	248	0.00	30.153 
11:05	37.5	32.1	37.5	64	26.4	7	15	270	0.00	30.156 
11:10	37.8	33.1	37.8	65	27.1	6	18	270	0.00	30.155 
11:15	37.9	34.0	37.9	65	27.2	5	13	270	0.00	30.148 
11:20	38.2	33.0	38.2	64	27.1	7	19	270	0.00	30.152 
11:25	38.5	34.0	38.5	63	27.0	6	14	270	0.00	30.145 
11:30	38.5	34.7	38.5	63	27.0	5	15	270	0.00	30.143 
11:35	38.5	34.0	38.5	64	27.4	6	19	270	0.00	30.143 
11:40	38.5	32.8	38.5	64	27.4	8	20	270	0.01	30.136 
11:45	38.3	32.5	38.3	65	27.6	8	16	270	0.00	30.137 
11:50	38.5	33.3	38.5	65	27.8	7	19	270	0.00	30.133 
11:55	38.5	32.8	38.5	65	27.8	8	20	270	0.00	30.128 
12:00	38.9	35.2	38.9	66	28.5	5	15	270	0.00	30.126 
12:05	39.1	34.7	39.1	65	28.3	6	13	270	0.00	30.125 
12:10	39.2	34.2	39.2	66	28.8	7	15	270	0.00	30.125 
12:15	39.3	33.7	39.3	64	28.2	8	20	270	0.00	30.130 
12:20	39.6	35.3	39.6	65	28.8	6	13	270	0.00	30.128 
12:25	39.9	36.4	39.9	65	29.1	5	11	270	0.00	30.128 
12:30	40.2	36.7	40.2	64	29.0	5	10	270	0.00	30.128 
12:35	39.8	35.5	39.8	63	28.2	6	15	270	0.00	30.130 
12:40	39.5	34.5	39.5	64	28.3	7	14	270	0.00	30.129 
12:45	39.3	34.9	39.3	63	27.8	6	17	270	0.00	30.130 
12:50	39.5	35.9	39.5	64	28.3	5	12	270	0.00	30.137 
12:55	39.6	36.9	39.6	62	27.7	4	12	270	0.00	30.142 
13:00	39.3	35.7	39.3	62	27.4	5	17	270	0.00	30.142 
13:05	39.6	36.0	39.6	62	27.7	5	10	270	0.00	30.143 
13:10	39.5	35.2	39.5	60	26.8	6	15	270	0.00	30.146 
13:15	39.5	35.2	39.5	59	26.4	6	14	270	0.00	30.145 
13:20	39.3	36.5	39.3	59	26.2	4	7	270	0.00	30.152 
13:25	39.1	36.3	39.1	60	26.4	4	9	270	0.00	30.154 
13:30	38.8	35.9	38.8	59	25.7	4	9	270	0.00	30.158 
13:35	39.2	36.4	39.2	57	25.3	4	12	270	0.00	30.160 
13:40	39.9	36.4	39.9	55	25.1	5	12	270	0.00	30.162 
13:45	40.3	36.8	40.3	54	25.0	5	13	270	0.00	30.167 
13:50	39.8	36.2	39.8	56	25.4	5	11	270	0.00	30.172 
13:55	39.2	35.5	39.2	57	25.3	5	11	270	0.00	30.171 
14:00	38.8	35.9	38.8	57	24.9	4	10	270	0.00	30.173 
14:05	38.3	35.4	38.3	57	24.4	4	7	270	0.00	30.176 
14:10	38.3	35.4	38.3	57	24.4	4	9	270	0.00	30.180 
14:15	38.9	38.9	38.9	58	25.4	3	7	292	0.00	30.177 
14:20	39.3	34.9	39.3	53	23.6	6	15	270	0.00	30.184 
14:25	39.5	35.9	39.5	53	23.8	5	11	270	0.00	30.187 
14:30	39.6	36.9	39.6	54	24.3	4	9	270	0.00	30.191 
14:35	39.8	37.1	39.8	54	24.5	4	10	270	0.00	30.192 
14:40	39.5	36.7	39.5	53	23.8	4	9	292	0.00	30.193 
14:45	39.1	36.3	39.1	52	23.0	4	12	292	0.00	30.197 
14:50	38.5	34.7	38.5	52	22.4	5	11	270	0.00	30.201 
14:55	38.3	35.4	38.3	52	22.2	4	10	270	0.00	30.206 
15:00	38.3	35.4	38.3	53	22.7	4	7	270	0.00	30.207 
15:05	38.5	35.6	38.5	54	23.3	4	8	270	0.00	30.209 
15:10	38.9	38.9	38.9	54	23.7	3	9	270	0.00	30.211 
15:15	38.3	38.3	38.3	55	23.6	3	9	315	0.00	30.220 
15:20	38.0	38.0	38.0	55	23.3	3	6	292	0.00	30.225 
15:25	37.8	37.8	37.8	51	21.3	3	7	270	0.00	30.224 
15:30	37.6	37.6	37.6	49	20.2	3	6	292	0.00	30.227 
15:35	37.3	37.3	37.3	47	18.9	3	9	292	0.00	30.229 
15:40	37.0	33.9	37.0	45	17.7	4	8	315	0.00	30.236 
15:45	36.8	36.8	36.8	45	17.5	3	6	292	0.00	30.243 
15:50	36.6	36.6	36.6	45	17.3	2	7	292	0.00	30.245 
15:55	36.3	36.3	36.3	43	16.0	3	6	315	0.00	30.247 
16:00	36.0	36.0	36.0	44	16.2	3	10	315	0.00	30.256 
16:05	35.9	35.9	35.9	42	15.1	2	4	315	0.00	30.259 
16:10	35.6	35.6	35.6	41	14.2	3	6	292	0.00	30.263 
16:15	35.3	35.3	35.3	43	15.1	1	4	338	0.00	30.268 
16:20	34.9	34.9	34.9	38	11.9	3	6	315	0.00	30.274 
16:25	34.7	34.7	34.7	39	12.3	1	5	270	0.00	30.278 
16:30	34.3	34.3	34.3	36	10.2	3	7	270	0.00	30.277 
16:35	34.0	34.0	34.0	37	10.5	3	6	315	0.00	30.277 
16:40	33.7	33.7	33.7	37	10.2	2	5	315	0.00	30.277 
16:45	33.4	33.4	33.4	38	10.6	2	6	292	0.00	30.278 
16:50	33.2	33.2	33.2	38	10.4	3	9	315	0.00	30.284 
16:55	32.9	32.9	32.9	39	10.7	3	9	270	0.00	30.294 
17:00	32.8	32.8	32.8	40	11.2	2	5	270	0.00	30.296 
17:05	32.5	32.5	32.5	40	10.9	1	4	315	0.00	30.300 
17:10	32.4	32.4	32.4	41	11.4	1	3	315	0.00	30.307 
17:15	32.1	32.1	32.1	42	11.6	1	4	270	0.00	30.308 
17:20	31.8	31.8	31.8	43	11.9	0	2	315	0.00	30.304 
17:25	31.6	31.6	31.6	44	12.2	0	2	315	0.00	30.312 
17:30	31.3	31.3	31.3	45	12.5	1	2	315	0.00	30.313 
17:35	31.2	31.2	31.2	46	12.9	0	3	292	0.00	30.317 
17:40	30.9	30.9	30.9	46	12.6	0	1	292	0.00	30.321 
17:45	30.7	30.7	30.7	49	13.8	0	2	292	0.00	30.325 
17:50	30.6	30.6	30.6	50	14.2	0	2	292	0.00	30.330 
17:55	30.3	30.3	30.3	50	13.9	1	5	315	0.00	30.334 
18:00	30.1	30.1	30.1	50	13.7	1	3	0	0.00	30.336 
18:05	30.0	30.0	30.0	51	14.1	1	2	292	0.00	30.343 
18:10	29.8	29.8	29.8	52	14.3	0	2	292	0.00	30.345 
18:15	29.5	29.5	29.5	52	14.1	0	1	292	0.00	30.347 
18:20	29.4	29.4	29.4	53	14.4	0	1	292	0.00	30.341 
18:25	29.3	29.3	29.3	54	14.7	0	1	292	0.00	30.345 
18:30	29.1	29.1	29.1	54	14.6	0	1	292	0.00	30.347 
18:35	29.0	29.0	29.0	55	14.9	0	1	292	0.00	30.350 
18:40	28.8	28.8	28.8	56	15.1	0	1	292	0.00	30.350 
18:45	28.8	28.8	28.8	56	15.1	0	1	292	0.00	30.349 
18:50	28.7	28.7	28.7	57	15.4	0	1	292	0.00	30.349 
18:55	28.7	28.7	28.7	57	15.4	0	3	292	0.00	30.349 
19:00	28.7	28.7	28.7	57	15.4	0	1	292	0.00	30.343 
19:05	28.7	28.7	28.7	58	15.8	0	1	292	0.00	30.342 
19:10	28.5	28.5	28.5	58	15.6	0	1	292	0.00	30.349 
19:15	28.4	28.4	28.4	58	15.5	0	1	292	0.00	30.352 
19:20	28.4	28.4	28.4	58	15.5	0	1	292	0.00	30.357 
19:25	28.2	28.2	28.2	58	15.3	0	1	292	0.00	30.357 
19:30	28.2	28.2	28.2	59	15.7	0	1	292	0.00	30.356 
19:35	28.1	28.1	28.1	59	15.6	0	1	292	0.00	30.365 
19:40	27.9	27.9	27.9	60	15.8	0	1	292	0.00	30.367 
19:45	27.8	27.8	27.8	60	15.7	0	0	---	0.00	30.367 
19:50	27.6	27.6	27.6	61	15.9	0	0	---	0.00	30.374 
19:55	27.5	27.5	27.5	61	15.8	0	1	292	0.00	30.371 
20:00	27.5	27.5	27.5	61	15.8	0	1	292	0.00	30.378 
20:05	27.5	27.5	27.5	61	15.8	0	1	292	0.00	30.372 
20:10	27.5	27.5	27.5	61	15.8	0	2	292	0.00	30.378 
20:15	27.5	27.5	27.5	60	15.5	0	2	292	0.00	30.369 
20:20	27.6	27.6	27.6	60	15.6	0	2	292	0.00	30.373 
20:25	27.5	27.5	27.5	60	15.5	0	1	292	0.00	30.374 
20:30	27.5	27.5	27.5	60	15.5	0	1	292	0.00	30.383 
20:35	27.6	27.6	27.6	59	15.2	1	3	292	0.00	30.393 
20:40	27.8	27.8	27.8	59	15.4	0	3	292	0.00	30.397 
20:45	27.8	27.8	27.8	59	15.4	0	2	315	0.00	30.392 
20:50	27.8	27.8	27.8	59	15.4	0	2	315	0.00	30.392 
20:55	27.8	27.8	27.8	60	15.7	0	2	315	0.00	30.395 
21:00	27.6	27.6	27.6	61	15.9	0	1	315	0.00	30.397 
21:05	27.5	27.5	27.5	61	15.8	0	2	315	0.00	30.388 
21:10	27.3	27.3	27.3	61	15.7	0	1	315	0.00	30.388 
21:15	27.3	27.3	27.3	61	15.7	0	1	315	0.00	30.395 
21:20	27.2	27.2	27.2	62	15.9	0	2	315	0.00	30.396 
21:25	27.0	27.0	27.0	62	15.7	0	1	315	0.00	30.386 
21:30	27.0	27.0	27.0	62	15.7	0	1	315	0.00	30.397 
21:35	26.9	26.9	26.9	62	15.6	0	2	315	0.00	30.397 
21:40	26.7	26.7	26.7	63	15.8	0	1	315	0.00	30.402 
21:45	26.7	26.7	26.7	63	15.8	0	1	315	0.00	30.400 
21:50	26.6	26.6	26.6	64	16.1	0	1	315	0.00	30.397 
21:55	26.4	26.4	26.4	65	16.3	0	1	315	0.00	30.393 
22:00	26.3	26.3	26.3	65	16.2	0	1	315	0.00	30.394 
22:05	26.1	26.1	26.1	66	16.3	0	0	---	0.00	30.387 
22:10	26.0	26.0	26.0	66	16.2	0	1	315	0.00	30.385 
22:15	25.7	25.7	25.7	67	16.3	0	1	315	0.00	30.383 
22:20	25.6	25.6	25.6	67	16.2	0	1	315	0.00	30.379 
22:25	25.4	25.4	25.4	68	16.3	0	0	---	0.00	30.384 
22:30	25.3	25.3	25.3	69	16.6	0	0	---	0.00	30.381 
22:35	25.1	25.1	25.1	69	16.4	0	0	---	0.00	30.383 
22:40	24.8	24.8	24.8	69	16.1	0	0	---	0.00	30.382 
22:45	24.5	24.5	24.5	69	15.8	0	0	---	0.00	30.381 
22:50	24.4	24.4	24.4	71	16.4	0	0	---	0.00	30.379 
22:55	24.1	24.1	24.1	72	16.4	0	0	---	0.00	30.377 
23:00	23.9	23.9	23.9	72	16.2	0	0	---	0.00	30.377 
23:05	23.6	23.6	23.6	73	16.2	0	0	---	0.00	30.378 
23:10	23.5	23.5	23.5	73	16.1	0	0	---	0.00	30.376 
23:15	23.3	23.3	23.3	74	16.3	0	0	---	0.00	30.377 
23:20	23.2	23.2	23.2	74	16.2	0	0	---	0.00	30.378 
23:25	23.0	23.0	23.0	75	16.3	0	0	---	0.00	30.380 
23:30	23.0	23.0	23.0	75	16.3	0	0	---	0.00	30.382 
23:35	22.9	22.9	22.9	75	16.2	0	0	---	0.00	30.388 
23:40	22.9	22.9	22.9	76	16.5	0	0	---	0.00	30.393 
23:45	22.7	22.7	22.7	76	16.3	0	0	---	0.00	30.394 
23:50	22.5	22.5	22.5	76	16.1	0	0	---	0.00	30.395 
23:55	22.4	22.4	22.4	77	16.3	0	0	---	0.00	30.396 

CoCoRaHS
IN-AL-39
A2 Web Hosting
Creative Commons License
GoDaddy
Look for:

loaded 2017-10-16 20:29:32 • last modified 2010-11-18 10:43:29
Privacy PolicyDisclaimer
• wx.awcolley.com is powered by PmWiki v.2002016 •
• all content (unless otherwise noted) © 2017 A W Colley